Snav Antares — IINQ — position and weather

sailwx.info

Track history (hours):
 
Tides and Currents Weather Stations Pressure Air Temp Water Temp Dewpoint Dewpoint Depression Visibility Wind Speed Wind Dir Waves Ship Positions

Snav Antares

Last reported at 2016-Dec-01 13:15 UTC. Time now 2016-Dec-11 11:58 UTC.
Position N 40°47' E 014°17'.
Warning: this ship's position is 9 days out of date.

Length 42 m; draft 1.6 m.

Type: Other ship. MMSI: 247058900.

Date/timePositionNaut miles runAvg speedWind from/ knotsBaromVisibWave heightAir tempDewpointWater temp
2016-Dec-01 13:15N 40°47' E 014°17'1418.5
2016-Dec-01 12:29N 40°33' E 014°14'16 7.0
2016-Dec-01 10:12N 40°49' E 014°17'1623.5
2016-Dec-01 09:31N 40°33' E 014°14'11 5.7
2016-Dec-01 07:33N 40°45' E 014°16'6 5.7
2016-Dec-01 06:34N 40°39' E 014°15'  
2016-Nov-28 16:07N 40°47' E 014°17'1324.2
2016-Nov-28 15:33N 40°33' E 014°15'0 0.2
2016-Nov-28 14:33N 40°33' E 014°14'16 7.1
2016-Nov-28 12:18N 40°49' E 014°17'1621.2
2016-Nov-28 11:33N 40°33' E 014°14'12 8.2
2016-Nov-28 10:05N 40°45' E 014°16'1222.7
2016-Nov-28 09:33N 40°33' E 014°14'11 5.5
2016-Nov-28 07:33N 40°44' E 014°16'5 5.3
2016-Nov-28 06:33N 40°39' E 014°15'  
2016-Nov-24 16:14N 40°50' E 014°17'17 9.7
2016-Nov-24 14:31N 40°33' E 014°14'12 5.0
2016-Nov-24 12:12N 40°45' E 014°17'1114.1
2016-Nov-24 11:23N 40°34' E 014°15'1613.5
2016-Nov-24 10:13N 40°49' E 014°17'1618.8
2016-Nov-24 09:22N 40°33' E 014°14'10 5.6
2016-Nov-24 07:33N 40°44' E 014°16'2 0.1
2016-Nov-23 16:13N 40°45' E 014°17'1215.9
2016-Nov-23 15:28N 40°33' E 014°14'8 7.9
2016-Nov-23 14:23N 40°42' E 014°16'8 3.6
2016-Nov-23 12:16N 40°49' E 014°17'1622.1
2016-Nov-23 11:33N 40°33' E 014°14'16 0.8
2016-Nov-22 16:09N 40°49' E 014°17'1626.0
2016-Nov-22 15:32N 40°34' E 014°15'1 0.5
2016-Nov-22 14:28N 40°33' E 014°14'13 2.9
2016-Nov-22 10:05N 40°46' E 014°17'1315.3
2016-Nov-22 09:14N 40°33' E 014°14'12 6.9
2016-Nov-22 07:33N 40°45' E 014°17'12 0.7
2016-Nov-21 14:28N 40°33' E 014°14'  
Track history (hours):
 
Tides and Currents Weather Stations Pressure Air Temp Water Temp Dewpoint Dewpoint Depression Visibility Wind Speed Wind Dir Waves Ship Positions

Snav Antares

Last reported at 2016-Dec-01 13:15 UTC. Time now 2016-Dec-11 11:58 UTC.
Position N 40°47' E 014°17'.
Warning: this ship's position is 9 days out of date.

Length 42 m; draft 1.6 m.

Type: Other ship. MMSI: 247058900.

Date/timePositionNaut miles runAvg speedWind from/ knotsBaromVisibWave heightAir tempDewpointWater temp
2016-Dec-01 13:15N 40°47' E 014°17'1418.5
2016-Dec-01 12:29N 40°33' E 014°14'16 7.0
2016-Dec-01 10:12N 40°49' E 014°17'1623.5
2016-Dec-01 09:31N 40°33' E 014°14'11 5.7
2016-Dec-01 07:33N 40°45' E 014°16'6 5.7
2016-Dec-01 06:34N 40°39' E 014°15'  
2016-Nov-28 16:07N 40°47' E 014°17'1324.2
2016-Nov-28 15:33N 40°33' E 014°15'0 0.2
2016-Nov-28 14:33N 40°33' E 014°14'16 7.1
2016-Nov-28 12:18N 40°49' E 014°17'1621.2
2016-Nov-28 11:33N 40°33' E 014°14'12 8.2
2016-Nov-28 10:05N 40°45' E 014°16'1222.7
2016-Nov-28 09:33N 40°33' E 014°14'11 5.5
2016-Nov-28 07:33N 40°44' E 014°16'5 5.3
2016-Nov-28 06:33N 40°39' E 014°15'  
2016-Nov-24 16:14N 40°50' E 014°17'17 9.7
2016-Nov-24 14:31N 40°33' E 014°14'12 5.0
2016-Nov-24 12:12N 40°45' E 014°17'1114.1
2016-Nov-24 11:23N 40°34' E 014°15'1613.5
2016-Nov-24 10:13N 40°49' E 014°17'1618.8
2016-Nov-24 09:22N 40°33' E 014°14'10 5.6
2016-Nov-24 07:33N 40°44' E 014°16'2 0.1
2016-Nov-23 16:13N 40°45' E 014°17'1215.9
2016-Nov-23 15:28N 40°33' E 014°14'8 7.9
2016-Nov-23 14:23N 40°42' E 014°16'8 3.6
2016-Nov-23 12:16N 40°49' E 014°17'1622.1
2016-Nov-23 11:33N 40°33' E 014°14'16 0.8
2016-Nov-22 16:09N 40°49' E 014°17'1626.0
2016-Nov-22 15:32N 40°34' E 014°15'1 0.5
2016-Nov-22 14:28N 40°33' E 014°14'13 2.9
2016-Nov-22 10:05N 40°46' E 014°17'1315.3
2016-Nov-22 09:14N 40°33' E 014°14'12 6.9
2016-Nov-22 07:33N 40°45' E 014°17'12 0.7
2016-Nov-21 14:28N 40°33' E 014°14'  

Dump ship's entire track history